createdAt,value
2019-05-17T00:00:17.194Z,14.33
2019-05-17T00:02:48.326Z,13.60
2019-05-17T00:05:19.415Z,13.43
2019-05-17T00:07:50.559Z,13.97
2019-05-17T00:10:21.779Z,14.90
2019-05-17T00:12:52.872Z,14.20
2019-05-17T00:15:23.919Z,14.67
2019-05-17T00:17:56.965Z,15.13
2019-05-17T00:20:27.698Z,13.40
2019-05-17T00:22:59.065Z,14.30
2019-05-17T00:25:30.132Z,12.83
2019-05-17T00:28:02.724Z,13.20
2019-05-17T00:30:33.869Z,12.57
2019-05-17T00:33:07.496Z,12.77
2019-05-17T00:35:38.840Z,12.97
2019-05-17T00:38:09.947Z,14.03
2019-05-17T00:40:41.120Z,11.47
2019-05-17T00:43:12.158Z,14.70
2019-05-17T00:45:43.244Z,14.37
2019-05-17T00:48:14.376Z,12.47
2019-05-17T00:50:52.263Z,12.43
2019-05-17T00:53:18.206Z,15.20
2019-05-17T00:55:49.260Z,15.60
2019-05-17T00:58:20.333Z,13.27
2019-05-17T01:00:51.393Z,13.93
2019-05-17T01:03:22.438Z,13.30
2019-05-17T01:05:53.551Z,13.60
2019-05-17T01:08:26.545Z,14.73
2019-05-17T01:10:57.493Z,12.90
2019-05-17T01:13:29.041Z,12.23
2019-05-17T01:16:00.202Z,11.47
2019-05-17T01:18:31.343Z,11.93
2019-05-17T01:21:02.378Z,12.00
2019-05-17T01:23:33.502Z,12.63
2019-05-17T01:26:07.533Z,12.30
2019-05-17T01:28:39.385Z,11.53
2019-05-17T01:31:10.612Z,13.33
2019-05-17T01:33:41.831Z,14.87
2019-05-17T01:36:12.933Z,15.53
2019-05-17T01:38:43.975Z,14.07
2019-05-17T01:41:17.181Z,13.40
2019-05-17T01:43:47.859Z,12.57
2019-05-17T01:46:19.018Z,13.20
2019-05-17T01:48:50.152Z,12.17
2019-05-17T01:51:21.263Z,12.93
2019-05-17T01:53:52.414Z,11.83
2019-05-17T01:56:23.510Z,12.37
2019-05-17T01:58:54.675Z,13.33
2019-05-17T02:01:27.590Z,11.87
2019-05-17T02:03:59.955Z,11.87
2019-05-17T02:06:31.024Z,11.00
2019-05-17T02:09:02.159Z,12.37
2019-05-17T02:11:34.317Z,12.57
2019-05-17T02:14:06.945Z,12.83
2019-05-17T02:16:38.130Z,15.30
2019-05-17T02:19:09.278Z,15.47
2019-05-17T02:21:40.372Z,18.03
2019-05-17T02:24:11.599Z,16.70
2019-05-17T02:26:42.713Z,17.73
2019-05-17T02:29:13.862Z,16.33
2019-05-17T02:31:45.141Z,17.87
2019-05-17T02:34:16.282Z,17.80
2019-05-17T02:36:47.377Z,16.80
2019-05-17T02:39:18.498Z,16.07
2019-05-17T02:41:49.615Z,17.90
2019-05-17T02:44:23.303Z,17.77
2019-05-17T02:46:53.814Z,16.70
2019-05-17T02:49:25.193Z,18.57
2019-05-17T02:51:56.351Z,16.07
2019-05-17T02:54:27.477Z,17.60
2019-05-17T02:56:58.661Z,18.37
2019-05-17T02:59:32.805Z,19.57
2019-05-17T03:02:03.500Z,21.17
2019-05-17T03:04:35.005Z,20.73
2019-05-17T03:07:06.122Z,19.17
2019-05-17T03:09:37.171Z,16.90
2019-05-17T03:12:08.300Z,16.30
2019-05-17T03:14:39.372Z,16.67
2019-05-17T03:17:13.789Z,17.00
2019-05-17T03:19:43.685Z,17.10
2019-05-17T03:22:15.055Z,18.17
2019-05-17T03:24:46.243Z,19.33
2019-05-17T03:27:17.420Z,19.37
2019-05-17T03:29:48.707Z,18.20
2019-05-17T03:32:25.914Z,18.40
2019-05-17T03:34:55.839Z,22.13
2019-05-17T03:37:32.522Z,26.63
2019-05-17T03:40:02.700Z,22.80
2019-05-17T03:42:33.092Z,21.73
2019-05-17T03:45:05.006Z,19.87
2019-05-17T03:47:36.268Z,21.17
2019-05-17T03:50:07.559Z,24.63
2019-05-17T03:52:38.582Z,23.23
2019-05-17T03:55:12.839Z,23.23
2019-05-17T03:57:44.279Z,21.37
2019-05-17T04:00:16.731Z,21.40
2019-05-17T04:02:47.802Z,21.73
2019-05-17T04:05:18.887Z,22.87
2019-05-17T04:07:53.342Z,23.40
2019-05-17T04:10:22.996Z,23.80
2019-05-17T04:12:54.260Z,24.50
2019-05-17T04:15:25.364Z,25.63
2019-05-17T04:17:56.429Z,25.33
2019-05-17T04:20:27.559Z,25.40
2019-05-17T04:23:03.866Z,27.37
2019-05-17T04:25:34.072Z,26.10
2019-05-17T04:28:05.223Z,24.53
2019-05-17T04:30:36.406Z,24.73
2019-05-17T04:33:07.470Z,25.67
2019-05-17T04:35:38.580Z,26.73
2019-05-17T04:38:12.604Z,28.13
2019-05-17T04:40:43.488Z,27.93
2019-05-17T04:43:14.497Z,27.13
2019-05-17T04:45:45.677Z,26.30
2019-05-17T04:48:16.828Z,29.10
2019-05-17T04:50:47.955Z,30.23
2019-05-17T04:53:19.108Z,32.40
2019-05-17T04:55:53.758Z,30.83
2019-05-17T04:58:23.437Z,31.67
2019-05-17T05:00:54.707Z,29.20
2019-05-17T05:03:25.865Z,27.53
2019-05-17T05:05:56.970Z,29.13
2019-05-17T05:08:28.001Z,27.57
2019-05-17T05:10:59.066Z,28.63
2019-05-17T05:13:33.057Z,29.33
2019-05-17T05:16:03.363Z,28.63
2019-05-17T05:18:34.782Z,29.40
2019-05-17T05:21:05.890Z,26.70
2019-05-17T05:23:37.051Z,28.80
2019-05-17T05:26:08.221Z,27.27
2019-05-17T05:28:41.790Z,29.07
2019-05-17T05:31:13.280Z,27.97
2019-05-17T05:33:44.578Z,25.73
2019-05-17T05:36:15.734Z,29.73
2019-05-17T05:38:46.904Z,29.93
2019-05-17T05:41:18.048Z,29.40
2019-05-17T05:43:49.100Z,29.53
2019-05-17T05:46:22.241Z,30.67
2019-05-17T05:48:52.994Z,29.77
2019-05-17T05:51:24.086Z,30.27
2019-05-17T05:53:55.165Z,29.20
2019-05-17T05:56:26.269Z,28.03
2019-05-17T05:58:57.342Z,29.47
2019-05-17T06:01:28.374Z,27.80
2019-05-17T06:03:59.484Z,28.40
2019-05-17T06:06:32.196Z,27.00
2019-05-17T06:09:04.351Z,29.17
2019-05-17T06:11:35.444Z,29.70
2019-05-17T06:14:06.783Z,30.00
2019-05-17T06:16:37.829Z,29.20
2019-05-17T06:19:08.916Z,29.47
2019-05-17T06:21:42.507Z,28.47
2019-05-17T06:24:12.748Z,27.90
2019-05-17T06:26:44.005Z,30.47
2019-05-17T06:29:15.116Z,29.30
2019-05-17T06:31:46.257Z,30.53
2019-05-17T06:34:17.357Z,29.13
2019-05-17T06:36:48.566Z,31.37
2019-05-17T06:39:22.260Z,31.23
2019-05-17T06:41:52.533Z,30.77
2019-05-17T06:44:23.631Z,30.67
2019-05-17T06:46:54.833Z,32.10
2019-05-17T06:49:25.925Z,32.00
2019-05-17T06:51:57.009Z,33.07
2019-05-17T06:54:28.116Z,32.07
2019-05-17T06:56:59.220Z,30.37
2019-05-17T06:59:31.342Z,31.33
2019-05-17T07:02:02.482Z,30.60
2019-05-17T07:04:33.582Z,28.50
2019-05-17T07:07:22.230Z,29.53
2019-05-17T07:09:54.418Z,27.80
2019-05-17T07:12:25.707Z,28.97
2019-05-17T07:14:58.458Z,30.80
2019-05-17T07:17:30.453Z,29.97
2019-05-17T07:20:01.680Z,26.27
2019-05-17T07:22:33.860Z,29.13
2019-05-17T07:25:05.587Z,28.27
2019-05-17T07:27:41.471Z,29.03
2019-05-17T07:30:10.117Z,30.07
2019-05-17T07:32:41.376Z,25.77
2019-05-17T07:35:12.608Z,23.90
2019-05-17T07:37:43.797Z,27.03
2019-05-17T07:40:14.971Z,30.83
2019-05-17T07:42:46.078Z,29.03
2019-05-17T07:45:17.443Z,30.50
2019-05-17T07:47:49.437Z,27.03
2019-05-17T07:50:22.187Z,28.13
2019-05-17T07:52:53.328Z,29.83
2019-05-17T07:55:24.453Z,25.90
2019-05-17T07:57:55.688Z,26.00
2019-05-17T08:00:26.858Z,24.27
2019-05-17T08:02:59.894Z,24.33
2019-05-17T08:05:30.721Z,22.17
2019-05-17T08:08:02.119Z,23.10
2019-05-17T08:10:33.231Z,26.50
2019-05-17T08:13:04.506Z,26.10
2019-05-17T08:15:35.896Z,25.07
2019-05-17T08:18:07.109Z,23.20
2019-05-17T08:20:40.050Z,24.45
2019-05-17T08:23:11.632Z,22.27
2019-05-17T08:25:52.879Z,24.05
2019-05-17T08:28:15.576Z,21.75
2019-05-17T08:30:49.974Z,23.27
2019-05-17T08:33:20.586Z,23.65
2019-05-17T08:35:51.800Z,24.77
2019-05-17T08:38:22.938Z,24.80
2019-05-17T08:40:54.051Z,24.83
2019-05-17T08:43:38.169Z,22.83
2019-05-17T08:45:59.341Z,23.22
2019-05-17T08:48:30.600Z,23.57
2019-05-17T08:51:01.973Z,22.80
2019-05-17T08:53:33.304Z,21.97
2019-05-17T08:56:04.491Z,20.30
2019-05-17T08:58:35.621Z,19.77
2019-05-17T09:01:06.726Z,18.17
2019-05-17T09:03:37.780Z,17.57
2019-05-17T09:06:12.508Z,19.03
2019-05-17T09:08:42.203Z,17.53
2019-05-17T09:11:13.252Z,17.20
2019-05-17T09:13:57.360Z,16.67
2019-05-17T09:16:19.456Z,16.32
2019-05-17T09:18:50.265Z,16.65
2019-05-17T09:21:22.113Z,15.20
2019-05-17T09:23:53.362Z,14.25
2019-05-17T09:26:24.550Z,14.20
2019-05-17T09:28:55.648Z,14.18
2019-05-17T09:31:26.724Z,13.20
2019-05-17T09:34:00.157Z,14.55
2019-05-17T09:36:30.610Z,13.30
2019-05-17T09:39:01.796Z,13.65
2019-05-17T09:41:34.427Z,14.38
2019-05-17T09:44:12.990Z,14.87
2019-05-17T09:46:39.548Z,15.45
2019-05-17T09:49:10.968Z,15.75
2019-05-17T09:51:42.379Z,15.35
2019-05-17T09:54:13.556Z,17.30
2019-05-17T09:56:44.839Z,15.58
2019-05-17T09:59:17.201Z,15.40
2019-05-17T10:01:49.610Z,15.80
2019-05-17T10:04:20.795Z,15.48
2019-05-17T10:06:52.176Z,15.88
2019-05-17T10:09:24.504Z,15.90
2019-05-17T10:11:55.832Z,16.10
2019-05-17T10:14:30.742Z,17.48
2019-05-17T10:17:00.450Z,15.60
2019-05-17T10:19:32.696Z,17.23
2019-05-17T10:22:03.902Z,17.65
2019-05-17T10:24:38.686Z,17.02
2019-05-17T10:27:10.743Z,17.37
2019-05-17T10:29:40.909Z,14.30
2019-05-17T10:32:12.133Z,16.40
2019-05-17T10:34:43.365Z,15.20
2019-05-17T10:37:14.607Z,15.78
2019-05-17T10:39:45.954Z,14.73
2019-05-17T10:42:17.294Z,15.23
2019-05-17T10:44:51.327Z,15.10
2019-05-17T10:47:22.399Z,15.03
2019-05-17T10:49:53.650Z,14.63
2019-05-17T10:52:25.868Z,15.30
2019-05-17T10:54:59.600Z,16.77
2019-05-17T10:57:30.381Z,16.25
2019-05-17T11:00:01.762Z,15.00
2019-05-17T11:02:33.258Z,16.10
2019-05-17T11:05:04.648Z,17.70
2019-05-17T11:07:36.003Z,18.37
2019-05-17T11:10:11.174Z,17.45
2019-05-17T11:12:41.460Z,16.35
2019-05-17T11:15:13.021Z,17.85
2019-05-17T11:17:44.238Z,17.50
2019-05-17T11:20:17.150Z,16.10
2019-05-17T11:22:48.367Z,17.98
2019-05-17T11:25:19.715Z,16.27
2019-05-17T11:27:51.058Z,16.37
2019-05-17T11:30:22.433Z,16.45
2019-05-17T11:32:53.653Z,16.77
2019-05-17T11:35:24.971Z,16.32
2019-05-17T11:37:56.427Z,16.23
2019-05-17T11:40:28.062Z,16.65
2019-05-17T11:42:59.239Z,16.80
2019-05-17T11:45:32.818Z,16.87
2019-05-17T11:48:03.452Z,15.95
2019-05-17T11:50:34.683Z,16.00
2019-05-17T11:53:05.905Z,17.25
2019-05-17T11:55:37.063Z,15.10
2019-05-17T11:58:08.223Z,14.43
2019-05-17T12:00:39.635Z,16.10
2019-05-17T12:03:10.838Z,16.40
2019-05-17T12:05:42.239Z,14.68
2019-05-17T12:08:13.680Z,15.60
2019-05-17T12:10:44.829Z,15.00
2019-05-17T12:13:16.004Z,14.25
2019-05-17T12:15:47.236Z,14.35
2019-05-17T12:18:18.375Z,13.80
2019-05-17T12:20:49.464Z,14.30
2019-05-17T12:23:20.519Z,15.55
2019-05-17T12:25:51.743Z,15.72
2019-05-17T12:28:22.936Z,15.65
2019-05-17T12:30:54.018Z,14.55
2019-05-17T12:33:25.114Z,14.98
2019-05-17T12:35:56.247Z,14.40
2019-05-17T12:38:27.307Z,13.72
2019-05-17T12:40:58.547Z,15.10
2019-05-17T12:43:29.765Z,14.38
2019-05-17T12:46:01.762Z,13.70
2019-05-17T12:48:33.220Z,14.28
2019-05-17T12:51:04.394Z,13.72
2019-05-17T12:53:35.577Z,13.60
2019-05-17T12:56:06.688Z,14.00
2019-05-17T12:58:37.922Z,13.98
2019-05-17T13:01:09.076Z,13.40
2019-05-17T13:03:40.242Z,13.03
2019-05-17T13:06:11.540Z,13.62
2019-05-17T13:08:42.726Z,14.53
2019-05-17T13:11:13.790Z,13.50
2019-05-17T13:13:45.040Z,13.50
2019-05-17T13:16:18.989Z,13.95
2019-05-17T13:18:49.106Z,14.30
2019-05-17T13:21:20.294Z,14.53
2019-05-17T13:23:51.587Z,14.28
2019-05-17T13:26:22.832Z,15.00
2019-05-17T13:28:53.963Z,14.80
2019-05-17T13:31:25.065Z,15.65
2019-05-17T13:33:56.217Z,15.35
2019-05-17T13:36:27.456Z,15.18
2019-05-17T13:38:58.598Z,14.68
2019-05-17T13:41:29.984Z,14.73
2019-05-17T13:44:01.204Z,14.90
2019-05-17T13:46:33.604Z,16.20
2019-05-17T13:49:05.048Z,16.37
2019-05-17T13:51:36.276Z,15.30
2019-05-17T13:54:07.510Z,13.88
2019-05-17T13:56:39.619Z,15.15
2019-05-17T13:59:10.756Z,14.98
2019-05-17T14:01:41.869Z,13.95
2019-05-17T14:04:13.489Z,13.58
2019-05-17T14:06:44.694Z,14.07
2019-05-17T14:09:15.863Z,14.50
2019-05-17T14:11:47.061Z,15.35
2019-05-17T14:14:18.256Z,15.68
2019-05-17T14:16:49.415Z,15.20
2019-05-17T14:19:20.799Z,15.23
2019-05-17T14:21:52.030Z,16.15
2019-05-17T14:24:23.247Z,15.78
2019-05-17T14:26:54.485Z,14.13
2019-05-17T14:29:26.005Z,14.80
2019-05-17T14:31:57.379Z,14.58
2019-05-17T14:34:28.690Z,15.18
2019-05-17T14:36:59.969Z,14.07
2019-05-17T14:39:31.304Z,15.15
2019-05-17T14:42:02.684Z,15.00
2019-05-17T14:44:33.847Z,14.30
2019-05-17T14:47:04.993Z,14.30
2019-05-17T14:49:36.129Z,13.55
2019-05-17T14:52:07.420Z,13.95
2019-05-17T14:54:38.721Z,14.23
2019-05-17T14:57:10.153Z,14.45
2019-05-17T14:59:41.558Z,13.53
2019-05-17T15:02:12.861Z,15.28
2019-05-17T15:04:44.403Z,15.80
2019-05-17T15:07:15.694Z,14.83
2019-05-17T15:09:47.126Z,14.95
2019-05-17T15:12:27.885Z,14.65
2019-05-17T15:14:52.334Z,14.18
2019-05-17T15:17:23.811Z,13.75
2019-05-17T15:19:55.196Z,12.78
2019-05-17T15:22:26.420Z,12.28
2019-05-17T15:24:58.949Z,13.10
2019-05-17T15:27:32.762Z,12.10
2019-05-17T15:30:05.411Z,11.95
2019-05-17T15:32:36.856Z,13.08
2019-05-17T15:35:08.555Z,11.88
2019-05-17T15:37:40.640Z,11.73
2019-05-17T15:40:12.454Z,12.85
2019-05-17T15:42:44.830Z,11.80
2019-05-17T15:45:16.623Z,12.93
2019-05-17T15:47:48.174Z,11.50
2019-05-17T15:50:19.816Z,12.50
2019-05-17T15:52:51.034Z,12.45
2019-05-17T15:55:22.501Z,12.53
2019-05-17T15:57:53.806Z,12.43
2019-05-17T16:00:25.118Z,12.20
2019-05-17T16:02:56.620Z,12.50
2019-05-17T16:05:28.891Z,12.58
2019-05-17T16:08:00.958Z,12.45
2019-05-17T16:10:33.319Z,12.43
2019-05-17T16:13:08.567Z,11.60
2019-05-17T16:15:40.896Z,12.90
2019-05-17T16:18:13.439Z,11.90
2019-05-17T16:20:46.769Z,12.20
2019-05-17T16:23:19.140Z,12.13
2019-05-17T16:25:51.024Z,11.93
2019-05-17T16:28:22.708Z,13.18
2019-05-17T16:31:06.249Z,12.40
2019-05-17T16:33:39.319Z,13.18
2019-05-17T16:36:11.800Z,12.47
2019-05-17T16:38:44.855Z,12.78
2019-05-17T16:41:17.150Z,12.13
2019-05-17T16:43:49.136Z,12.15
2019-05-17T16:46:20.499Z,12.05
2019-05-17T16:48:51.929Z,11.28
2019-05-17T16:51:23.179Z,12.03
2019-05-17T16:53:55.048Z,11.60
2019-05-17T16:56:26.358Z,11.40
2019-05-17T16:58:57.640Z,11.78
2019-05-17T17:01:28.795Z,13.05
2019-05-17T17:04:00.105Z,11.28
2019-05-17T17:06:31.277Z,11.63
2019-05-17T17:09:05.060Z,11.38
2019-05-17T17:11:39.015Z,11.93
2019-05-17T17:14:10.300Z,11.85
2019-05-17T17:16:41.737Z,11.35
2019-05-17T17:19:13.308Z,11.95
2019-05-17T17:21:44.541Z,11.18
2019-05-17T17:24:15.874Z,12.23
2019-05-17T17:26:48.645Z,10.20
2019-05-17T17:29:20.345Z,11.43
2019-05-17T17:31:53.600Z,11.57
2019-05-17T17:34:24.825Z,10.13
2019-05-17T17:36:56.200Z,11.75
2019-05-17T17:39:27.441Z,11.57
2019-05-17T17:41:58.689Z,11.45
2019-05-17T17:44:30.039Z,11.22
2019-05-17T17:47:03.687Z,11.63
2019-05-17T17:49:36.660Z,12.78
2019-05-17T17:52:07.985Z,12.65
2019-05-17T17:54:39.473Z,13.08
2019-05-17T17:57:10.695Z,12.58
2019-05-17T17:59:42.025Z,12.45
2019-05-17T18:02:13.409Z,12.03
2019-05-17T18:04:44.777Z,12.80
2019-05-17T18:07:16.314Z,13.50
2019-05-17T18:09:48.970Z,13.15
2019-05-17T18:12:20.842Z,13.28
2019-05-17T18:14:52.057Z,12.98
2019-05-17T18:17:23.527Z,12.98
2019-05-17T18:19:55.204Z,13.75
2019-05-17T18:22:26.703Z,13.95
2019-05-17T18:24:58.115Z,14.73
2019-05-17T18:27:30.378Z,16.23
2019-05-17T18:30:01.565Z,15.10
2019-05-17T18:32:36.259Z,15.00
2019-05-17T18:35:07.963Z,15.98
2019-05-17T18:37:39.551Z,15.23
2019-05-17T18:40:14.333Z,14.53
2019-05-17T18:42:45.892Z,14.65
2019-05-17T18:45:17.405Z,15.43
2019-05-17T18:47:50.483Z,16.30
2019-05-17T18:50:21.712Z,15.43
2019-05-17T18:52:52.844Z,16.32
2019-05-17T18:55:25.055Z,14.25
2019-05-17T18:57:56.473Z,16.48
2019-05-17T19:00:27.956Z,15.38
2019-05-17T19:02:59.461Z,16.73
2019-05-17T19:05:32.945Z,16.15
2019-05-17T19:08:04.932Z,17.40
2019-05-17T19:10:36.464Z,19.07
2019-05-17T19:13:08.106Z,18.02
2019-05-17T19:15:44.449Z,19.50
2019-05-17T19:18:16.359Z,20.90
2019-05-17T19:20:49.599Z,19.53
2019-05-17T19:23:21.128Z,21.03
2019-05-17T19:25:52.422Z,20.47
2019-05-17T19:28:23.848Z,20.90
2019-05-17T19:30:55.196Z,20.27
2019-05-17T19:33:26.470Z,24.03
2019-05-17T19:35:58.117Z,22.17
2019-05-17T19:38:29.376Z,21.93
2019-05-17T19:41:00.866Z,21.17
2019-05-17T19:43:32.320Z,21.30
2019-05-17T19:46:03.685Z,20.80
2019-05-17T19:48:35.016Z,20.73
2019-05-17T19:51:06.393Z,21.93
2019-05-17T19:53:39.061Z,23.27
2019-05-17T19:56:10.307Z,22.53
2019-05-17T19:58:42.494Z,20.10
2019-05-17T20:01:13.859Z,21.57
2019-05-17T20:03:45.031Z,20.97
2019-05-17T20:06:16.399Z,20.77
2019-05-17T20:08:47.671Z,21.10
2019-05-17T20:11:33.681Z,21.73
2019-05-17T20:13:53.104Z,19.43
2019-05-17T20:16:24.321Z,20.13
2019-05-17T20:18:56.220Z,19.23
2019-05-17T20:21:35.293Z,22.77
2019-05-17T20:24:08.087Z,22.37
2019-05-17T20:26:39.340Z,20.87
2019-05-17T20:29:11.149Z,21.57
2019-05-17T20:31:42.639Z,24.53
2019-05-17T20:34:14.495Z,24.00
2019-05-17T20:36:45.902Z,22.80
2019-05-17T20:39:17.172Z,23.77
2019-05-17T20:41:48.476Z,23.00
2019-05-17T20:44:19.915Z,22.07
2019-05-17T20:46:51.062Z,47.97
2019-05-17T20:49:22.247Z,43.90
2019-05-17T20:51:53.990Z,31.63
2019-05-17T20:54:25.112Z,26.43
2019-05-17T20:56:56.533Z,26.63
2019-05-17T20:59:27.856Z,26.10
2019-05-17T21:01:59.362Z,24.97
2019-05-17T21:04:30.939Z,23.80
2019-05-17T21:07:02.934Z,25.13
2019-05-17T21:09:34.428Z,24.67
2019-05-17T21:12:06.260Z,24.23
2019-05-17T21:14:38.103Z,26.00
2019-05-17T21:17:09.687Z,24.83
2019-05-17T21:19:41.809Z,23.40
2019-05-17T21:22:13.354Z,24.70
2019-05-17T21:24:45.175Z,22.13
2019-05-17T21:27:16.830Z,23.87
2019-05-17T21:29:48.531Z,21.40
2019-05-17T21:32:20.368Z,21.90
2019-05-17T21:34:52.308Z,21.00
2019-05-17T21:37:23.737Z,21.30
2019-05-17T21:39:55.934Z,20.60
2019-05-17T21:42:27.861Z,20.17
2019-05-17T21:44:59.349Z,19.63
2019-05-17T21:47:31.096Z,18.57
2019-05-17T21:50:02.422Z,18.80
2019-05-17T21:52:34.265Z,17.70
2019-05-17T21:55:05.921Z,20.27
2019-05-17T21:57:37.371Z,17.47
2019-05-17T22:00:12.634Z,20.23
2019-05-17T22:02:45.979Z,18.33
2019-05-17T22:05:17.372Z,18.23
2019-05-17T22:07:48.699Z,17.33
2019-05-17T22:10:20.621Z,17.23
2019-05-17T22:12:52.280Z,19.10
2019-05-17T22:15:23.886Z,16.97
2019-05-17T22:17:55.942Z,15.83
2019-05-17T22:20:27.465Z,17.37
2019-05-17T22:22:58.901Z,17.40
2019-05-17T22:25:30.177Z,23.43
2019-05-17T22:28:01.344Z,19.87
2019-05-17T22:30:32.529Z,20.73
2019-05-17T22:33:03.709Z,20.63
2019-05-17T22:35:34.880Z,20.93
2019-05-17T22:38:06.049Z,19.97
2019-05-17T22:40:38.428Z,21.33
2019-05-17T22:43:09.672Z,18.47
2019-05-17T22:45:40.876Z,17.80
2019-05-17T22:48:11.958Z,18.60
2019-05-17T22:50:44.395Z,18.23
2019-05-17T22:53:15.623Z,17.13
2019-05-17T22:55:46.760Z,18.73
2019-05-17T22:58:17.874Z,23.27
2019-05-17T23:00:49.024Z,19.20
2019-05-17T23:03:20.338Z,20.17
2019-05-17T23:05:51.512Z,18.43
2019-05-17T23:08:22.748Z,19.53
2019-05-17T23:10:53.876Z,21.87
2019-05-17T23:13:25.006Z,22.53
2019-05-17T23:16:03.178Z,21.00
2019-05-17T23:18:35.171Z,22.87
2019-05-17T23:21:06.239Z,21.83
2019-05-17T23:23:37.352Z,20.30
2019-05-17T23:26:08.389Z,20.77
2019-05-17T23:28:39.587Z,23.33
2019-05-17T23:31:10.707Z,26.00
2019-05-17T23:33:41.768Z,26.87
2019-05-17T23:36:13.098Z,25.90
2019-05-17T23:38:44.258Z,28.03
2019-05-17T23:41:15.378Z,27.77
2019-05-17T23:43:46.520Z,25.87
2019-05-17T23:46:17.722Z,31.53
2019-05-17T23:48:48.973Z,29.33
2019-05-17T23:51:21.182Z,27.00
2019-05-17T23:53:52.278Z,26.90
2019-05-17T23:56:23.390Z,30.27
2019-05-17T23:58:54.528Z,31.10
